Bellevue, NE (68005)

5:29 PM CDT on May 22, 2015 (GMT -0500)
Birchcrest | | Change Station
CLOSE
Current Station
Personal Weather Station
Location: Bellevue, NE
Elevation: 1056 ft
Nearby Weather Stations

Elev 1056 ft 41.15 °N, 95.91 °W | Updated 430 days ago

Cloudy
Cloudy
63 °F
Feels Like 63 °F
N
8
Wind Variable Wind from SE
Gusts 13 mph

Today
High -- | Low -- °F
--% Chance of Precip.
Yesterday
High -- | Low -- °F
Precip. -- in
5:59 AM 8:41 PM
Waxing Crescent, 24% visible
Pressure 30.23 in
Visibility 10.0 miles
Clouds Few 12000 ft
Dew Point 45 °F
Humidity 53%
Rainfall in
Snow Depth Not available.
UV 5 out of 12
Pollen 7.80 out of 12
Air Quality Not available.
Flu Activity Sporadic
METAR KOFF 222158Z AUTO 10004KT 10SM FEW120 19/09 A3021 RMK AO2 SLP235 T01920094 $

More Conditions Fewer Conditions

Pressure 30.23 in
Visibility 10.0 miles
Clouds Few 12000 ft
Dew Point 45 °F
Humidity 53%
Rainfall in
Snow Depth Not available.
UV 5 out of 12
Pollen 7.80 out of 12
Air Quality Not available.
Flu Activity Sporadic
METAR KOFF 222158Z AUTO 10004KT 10SM FEW120 19/09 A3021 RMK AO2 SLP235 T01920094 $

More Conditions Fewer Conditions

Nowcast | as of 3:41 PM CDT on May 22, 2015

A band of light rain is lifting north across the area from northeast into east central Nebraska and western Iowa. The rain does not last long...but some light rainfall amounts from a trace to a few hundredths of an inch. Some brief gusty winds of 10 to 20 mph are possible as the rain moves in. Another area of light rain will continue to develop from central Nebraska into northeast Nebraska this evening with additional light amounts possible.

×

10-Day Weather Forecast

Almanac

Astronomy

May. 22, 2015 Rise Set
Actual Time
Civil Twilight
Nautical Twilight
Astronomical Twilight
Moon
Length of Visible Light
Length of Day
Tomorrow will be .
, % of the Moon is Illuminated

Today's Extremes

State Highs State Lows

Community

WunderPhotos

Upload Photos

1,823,324 photos uploaded!

WunderBlogs® & News

Nearby

Air Quality

  Air Quality AQ Index Pollutant
Not available.

Snow Depth

Station Depth Elevation

Earthquake Activity

City Distance Mag. Time & Date
Minimum magnitude displayed is 2.5.

Coastal Water Temperatures

Place Temperature

Stations

Nearby Weather Stations

Station Location Temp. Windchill Dew Point Humidity Wind Precip. Elev Updated Type